createdAt,value
2019-04-11T00:00:27.714Z,0
2019-04-11T00:01:35.608Z,0
2019-04-11T00:02:28.966Z,0
2019-04-11T00:03:27.353Z,0
2019-04-11T00:04:28.231Z,0
2019-04-11T00:05:27.574Z,0
2019-04-11T00:06:29.630Z,0
2019-04-11T00:07:27.986Z,0
2019-04-11T00:08:28.027Z,0
2019-04-11T00:09:30.145Z,0
2019-04-11T00:10:29.035Z,0
2019-04-11T00:11:30.173Z,0
2019-04-11T00:12:28.454Z,0
2019-04-11T00:13:30.184Z,0
2019-04-11T00:14:29.669Z,0
2019-04-11T00:15:28.813Z,0
2019-04-11T00:16:28.911Z,0
2019-04-11T00:17:29.962Z,0
2019-04-11T00:18:30.351Z,0
2019-04-11T00:19:29.449Z,0
2019-04-11T00:20:29.215Z,0
2019-04-11T00:21:29.268Z,0
2019-04-11T00:22:29.872Z,0
2019-04-11T00:23:30.227Z,0
2019-04-11T00:24:31.326Z,0
2019-04-11T00:25:29.880Z,0
2019-04-11T00:26:30.472Z,0
2019-04-11T00:27:29.865Z,0
2019-04-11T00:28:29.974Z,0
2019-04-11T00:29:30.263Z,0
2019-04-11T00:30:30.344Z,0
2019-04-11T00:31:30.628Z,0
2019-04-11T00:32:30.197Z,0
2019-04-11T00:33:30.290Z,0
2019-04-11T00:34:31.036Z,0
2019-04-11T00:35:31.418Z,0
2019-04-11T00:36:30.614Z,0
2019-04-11T00:37:30.472Z,0
2019-04-11T00:38:31.742Z,0
2019-04-11T00:39:31.981Z,0
2019-04-11T00:40:33.211Z,0
2019-04-11T00:41:32.332Z,0
2019-04-11T00:42:31.123Z,0
2019-04-11T00:43:36.907Z,0
2019-04-11T00:44:32.751Z,0
2019-04-11T00:45:31.816Z,0
2019-04-11T00:46:32.041Z,0
2019-04-11T00:47:33.145Z,0
2019-04-11T00:48:31.966Z,0
2019-04-11T00:49:32.562Z,0
2019-04-11T00:50:31.980Z,0
2019-04-11T00:51:32.191Z,0
2019-04-11T00:52:32.226Z,0
2019-04-11T00:53:32.347Z,0
2019-04-11T00:54:33.141Z,0
2019-04-11T00:55:32.504Z,0
2019-04-11T00:56:34.453Z,0
2019-04-11T00:57:32.833Z,0
2019-04-11T00:58:33.847Z,0
2019-04-11T00:59:32.849Z,0
2019-04-11T01:00:33.917Z,0
2019-04-11T01:01:33.667Z,0
2019-04-11T01:02:33.634Z,0
2019-04-11T01:03:35.984Z,0
2019-04-11T01:04:33.498Z,0
2019-04-11T01:05:34.458Z,0
2019-04-11T01:06:34.306Z,0
2019-04-11T01:07:33.911Z,0
2019-04-11T01:08:33.798Z,0
2019-04-11T01:09:34.712Z,0
2019-04-11T01:10:34.160Z,0
2019-04-11T01:11:36.200Z,0
2019-04-11T01:12:34.394Z,0
2019-04-11T01:13:44.261Z,0
2019-04-11T01:14:37.157Z,0
2019-04-11T01:15:36.396Z,0
2019-04-11T01:16:36.720Z,0
2019-04-11T01:17:35.631Z,0
2019-04-11T01:18:34.814Z,0
2019-04-11T01:19:35.866Z,0
2019-04-11T01:20:35.513Z,0
2019-04-11T01:21:35.045Z,0
2019-04-11T01:22:36.256Z,0
2019-04-11T01:23:35.376Z,0
2019-04-11T01:24:35.628Z,0
2019-04-11T01:25:35.391Z,0
2019-04-11T01:26:35.556Z,0
2019-04-11T01:27:36.229Z,0
2019-04-11T01:28:36.512Z,0
2019-04-11T01:29:36.051Z,0
2019-04-11T01:30:36.665Z,0
2019-04-11T01:31:36.030Z,0
2019-04-11T01:32:36.210Z,0
2019-04-11T01:33:36.193Z,0
2019-04-11T01:34:37.077Z,0
2019-04-11T01:35:37.286Z,0
2019-04-11T01:36:37.514Z,0
2019-04-11T01:37:37.695Z,0
2019-04-11T01:38:36.840Z,0
2019-04-11T01:39:38.012Z,0
2019-04-11T01:40:38.098Z,0
2019-04-11T01:41:38.402Z,0
2019-04-11T01:42:37.646Z,0
2019-04-11T01:43:37.795Z,0
2019-04-11T01:44:38.872Z,0
2019-04-11T01:45:38.672Z,0
2019-04-11T01:46:38.229Z,0
2019-04-11T01:47:37.688Z,0
2019-04-11T01:48:38.031Z,0
2019-04-11T01:49:38.577Z,0
2019-04-11T01:50:37.909Z,0
2019-04-11T01:51:39.988Z,0
2019-04-11T01:52:38.354Z,0
2019-04-11T01:53:39.468Z,0
2019-04-11T01:54:38.264Z,0
2019-04-11T01:55:38.816Z,0
2019-04-11T01:56:39.131Z,0
2019-04-11T01:57:38.648Z,0
2019-04-11T01:58:38.678Z,0
2019-04-11T01:59:39.561Z,0
2019-04-11T02:00:39.941Z,0
2019-04-11T02:01:39.062Z,0
2019-04-11T02:02:38.974Z,0
2019-04-11T02:03:39.409Z,0
2019-04-11T02:04:40.360Z,0
2019-04-11T02:05:39.320Z,0
2019-04-11T02:06:40.300Z,0
2019-04-11T02:07:39.626Z,0
2019-04-11T02:08:41.645Z,0
2019-04-11T02:09:40.053Z,0
2019-04-11T02:10:41.082Z,0
2019-04-11T02:11:40.015Z,0
2019-04-11T02:12:40.092Z,0
2019-04-11T02:13:40.231Z,0
2019-04-11T02:14:40.087Z,0
2019-04-11T02:15:40.800Z,0
2019-04-11T02:16:41.108Z,0
2019-04-11T02:17:41.319Z,0
2019-04-11T02:18:41.708Z,0
2019-04-11T02:19:40.547Z,0
2019-04-11T02:20:40.938Z,0
2019-04-11T02:21:40.737Z,0
2019-04-11T02:22:40.837Z,0
2019-04-11T02:23:41.407Z,0
2019-04-11T02:24:41.723Z,0
2019-04-11T02:25:41.220Z,0
2019-04-11T02:26:42.895Z,0
2019-04-11T02:27:42.254Z,0
2019-04-11T02:28:41.647Z,0
2019-04-11T02:29:42.558Z,0
2019-04-11T02:30:43.570Z,0
2019-04-11T02:31:44.501Z,0
2019-04-11T02:32:44.888Z,0
2019-04-11T02:33:43.373Z,0
2019-04-11T02:34:43.859Z,0
2019-04-11T02:35:44.712Z,0
2019-04-11T02:36:42.887Z,0
2019-04-11T02:37:44.221Z,0
2019-04-11T02:38:44.112Z,0
2019-04-11T02:39:43.873Z,0
2019-04-11T02:40:45.339Z,0
2019-04-11T02:41:44.503Z,0
2019-04-11T02:42:43.275Z,0
2019-04-11T02:43:44.406Z,0
2019-04-11T02:44:59.122Z,0
2019-04-11T02:45:55.225Z,0
2019-04-11T02:46:54.043Z,0
2019-04-11T02:47:48.104Z,0
2019-04-11T02:48:44.964Z,0
2019-04-11T02:49:45.608Z,0
2019-04-11T02:50:45.694Z,0
2019-04-11T02:51:44.950Z,0
2019-04-11T02:52:45.217Z,0
2019-04-11T02:53:45.238Z,0
2019-04-11T02:54:45.760Z,0
2019-04-11T02:55:46.532Z,0
2019-04-11T02:56:45.492Z,0
2019-04-11T02:57:46.026Z,0
2019-04-11T02:58:46.305Z,0
2019-04-11T02:59:47.172Z,0
2019-04-11T03:00:45.870Z,0
2019-04-11T03:01:46.481Z,0
2019-04-11T03:02:47.651Z,0
2019-04-11T03:03:47.349Z,0
2019-04-11T03:04:47.929Z,0
2019-04-11T03:05:46.756Z,0
2019-04-11T03:06:47.897Z,0
2019-04-11T03:07:45.809Z,0
2019-04-11T03:08:46.458Z,0
2019-04-11T03:09:48.694Z,0
2019-04-11T03:10:46.783Z,0
2019-04-11T03:11:47.750Z,0
2019-04-11T03:12:48.396Z,0
2019-04-11T03:13:48.502Z,0
2019-04-11T03:15:05.149Z,0
2019-04-11T03:15:59.122Z,0
2019-04-11T03:16:57.201Z,0
2019-04-11T03:17:50.630Z,0
2019-04-11T03:19:04.799Z,0
2019-04-11T03:20:02.571Z,0
2019-04-11T03:20:56.044Z,0
2019-04-11T03:21:49.895Z,0
2019-04-11T03:22:54.604Z,0
2019-04-11T03:23:49.305Z,0
2019-04-11T03:24:49.688Z,0
2019-04-11T03:25:49.140Z,0
2019-04-11T03:26:49.672Z,0
2019-04-11T03:27:49.440Z,0
2019-04-11T03:28:50.091Z,0
2019-04-11T03:29:49.396Z,0
2019-04-11T03:31:12.686Z,0
2019-04-11T03:32:27.123Z,0
2019-04-11T03:33:42.538Z,0
2019-04-11T03:35:34.440Z,0
2019-04-11T03:37:18.478Z,0
2019-04-11T03:38:12.081Z,0
2019-04-11T03:39:10.425Z,0
2019-04-11T03:40:04.151Z,0
2019-04-11T03:41:09.837Z,0
2019-04-11T03:42:03.778Z,0
2019-04-11T03:43:01.065Z,0
2019-04-11T03:43:58.818Z,0
2019-04-11T03:45:11.094Z,0
2019-04-11T03:46:07.976Z,0
2019-04-11T03:47:08.229Z,0
2019-04-11T03:48:05.412Z,0
2019-04-11T03:49:01.103Z,0
2019-04-11T03:49:57.641Z,0
2019-04-11T03:50:54.221Z,0
2019-04-11T03:51:52.972Z,0
2019-04-11T03:52:51.734Z,0
2019-04-11T03:53:53.139Z,0
2019-04-11T03:54:51.651Z,0
2019-04-11T03:55:53.500Z,0
2019-04-11T03:56:53.336Z,0
2019-04-11T03:57:53.204Z,0
2019-04-11T03:58:53.385Z,0
2019-04-11T03:59:51.998Z,0
2019-04-11T04:00:54.714Z,0
2019-04-11T04:01:53.990Z,0
2019-04-11T04:02:52.689Z,0
2019-04-11T04:03:53.888Z,0
2019-04-11T04:04:53.912Z,0
2019-04-11T04:05:52.824Z,0
2019-04-11T04:06:52.974Z,0
2019-04-11T04:07:52.509Z,0
2019-04-11T04:08:53.662Z,0
2019-04-11T04:09:54.255Z,0
2019-04-11T04:10:53.651Z,0
2019-04-11T04:11:54.516Z,0
2019-04-11T04:12:53.600Z,0
2019-04-11T04:13:54.375Z,0
2019-04-11T04:14:54.322Z,0
2019-04-11T04:16:02.427Z,0
2019-04-11T04:16:56.444Z,0
2019-04-11T04:17:55.080Z,1
2019-04-11T04:18:54.191Z,1
2019-04-11T04:19:54.798Z,0
2019-04-11T04:20:54.180Z,0
2019-04-11T04:21:55.319Z,1
2019-04-11T04:22:54.530Z,0
2019-04-11T04:23:56.482Z,1
2019-04-11T04:24:55.703Z,1
2019-04-11T04:25:54.442Z,1
2019-04-11T04:26:56.764Z,1
2019-04-11T04:27:56.681Z,2
2019-04-11T04:28:55.515Z,2
2019-04-11T04:29:57.584Z,2
2019-04-11T04:30:55.372Z,3
2019-04-11T04:31:55.065Z,3
2019-04-11T04:32:54.642Z,4
2019-04-11T04:33:55.495Z,4
2019-04-11T04:34:56.159Z,5
2019-04-11T04:35:55.918Z,5
2019-04-11T04:36:55.842Z,7
2019-04-11T04:37:56.909Z,7
2019-04-11T04:38:57.089Z,8
2019-04-11T04:40:13.083Z,9
2019-04-11T04:41:09.845Z,10
2019-04-11T04:42:03.540Z,12
2019-04-11T04:42:58.346Z,13
2019-04-11T04:43:57.421Z,14
2019-04-11T04:44:58.101Z,16
2019-04-11T04:46:11.286Z,17
2019-04-11T04:47:09.854Z,19
2019-04-11T04:48:02.512Z,21
2019-04-11T04:48:58.352Z,22
2019-04-11T04:49:57.044Z,25
2019-04-11T04:50:57.700Z,27
2019-04-11T04:51:56.954Z,29
2019-04-11T04:52:58.115Z,32
2019-04-11T04:53:57.741Z,34
2019-04-11T04:54:57.651Z,37
2019-04-11T04:55:57.465Z,40
2019-04-11T04:56:56.100Z,42
2019-04-11T04:57:57.660Z,46
2019-04-11T04:58:58.217Z,49
2019-04-11T04:59:57.814Z,52
2019-04-11T05:00:58.479Z,56
2019-04-11T05:01:59.176Z,60
2019-04-11T05:02:59.776Z,63
2019-04-11T05:03:58.377Z,67
2019-04-11T05:04:58.680Z,72
2019-04-11T05:05:58.392Z,76
2019-04-11T05:06:58.847Z,80
2019-04-11T05:07:58.860Z,84
2019-04-11T05:09:00.027Z,88
2019-04-11T05:09:58.745Z,93
2019-04-11T05:10:58.712Z,98
2019-04-11T05:11:58.050Z,102
2019-04-11T05:12:59.296Z,108
2019-04-11T05:13:58.717Z,113
2019-04-11T05:14:59.148Z,119
2019-04-11T05:16:08.177Z,125
2019-04-11T05:17:00.404Z,131
2019-04-11T05:17:59.448Z,138
2019-04-11T05:18:59.495Z,145
2019-04-11T05:19:59.475Z,151
2019-04-11T05:20:59.652Z,157
2019-04-11T05:21:59.747Z,165
2019-04-11T05:23:00.043Z,171
2019-04-11T05:23:58.691Z,177
2019-04-11T05:25:01.783Z,185
2019-04-11T05:26:00.122Z,190
2019-04-11T05:27:00.400Z,197
2019-04-11T05:27:59.853Z,204
2019-04-11T05:29:00.591Z,209
2019-04-11T05:30:00.705Z,215
2019-04-11T05:31:00.497Z,222
2019-04-11T05:31:59.513Z,232
2019-04-11T05:33:01.726Z,239
2019-04-11T05:33:59.833Z,249
2019-04-11T05:35:00.561Z,255
2019-04-11T05:36:00.489Z,262
2019-04-11T05:37:00.287Z,267
2019-04-11T05:37:59.999Z,276
2019-04-11T05:39:00.371Z,283
2019-04-11T05:40:00.869Z,292
2019-04-11T05:41:02.098Z,301
2019-04-11T05:42:01.687Z,308
2019-04-11T05:43:02.425Z,322
2019-04-11T05:44:03.043Z,334
2019-04-11T05:45:03.165Z,340
2019-04-11T05:46:04.740Z,348
2019-04-11T05:47:02.650Z,360
2019-04-11T05:48:03.084Z,367
2019-04-11T05:49:02.252Z,374
2019-04-11T05:50:01.103Z,386
2019-04-11T05:51:01.892Z,402
2019-04-11T05:52:02.049Z,410
2019-04-11T05:53:03.475Z,426
2019-04-11T05:54:04.691Z,434
2019-04-11T05:55:03.004Z,454
2019-04-11T05:56:03.786Z,441
2019-04-11T05:57:03.179Z,442
2019-04-11T05:58:05.778Z,447
2019-04-11T05:59:02.708Z,453
2019-04-11T06:00:03.602Z,475
2019-04-11T06:01:10.011Z,505
2019-04-11T06:02:06.828Z,508
2019-04-11T06:03:01.954Z,511
2019-04-11T06:04:02.931Z,532
2019-04-11T06:05:04.530Z,545
2019-04-11T06:06:03.205Z,553
2019-04-11T06:07:03.238Z,530
2019-04-11T06:08:05.059Z,545
2019-04-11T06:09:02.317Z,595
2019-04-11T06:10:08.348Z,627
2019-04-11T06:11:04.650Z,643
2019-04-11T06:12:03.843Z,572
2019-04-11T06:13:04.548Z,579
2019-04-11T06:14:05.639Z,646
2019-04-11T06:15:03.919Z,696
2019-04-11T06:16:04.478Z,711
2019-04-11T06:17:03.100Z,715
2019-04-11T06:18:03.132Z,668
2019-04-11T06:19:03.979Z,672
2019-04-11T06:20:04.040Z,679
2019-04-11T06:21:04.898Z,678
2019-04-11T06:22:04.545Z,685
2019-04-11T06:23:06.549Z,663
2019-04-11T06:24:04.587Z,659
2019-04-11T06:25:05.983Z,690
2019-04-11T06:26:06.596Z,721
2019-04-11T06:27:04.123Z,767
2019-04-11T06:28:06.185Z,785
2019-04-11T06:29:14.403Z,797
2019-04-11T06:30:06.031Z,951
2019-04-11T06:31:06.047Z,1081
2019-04-11T06:32:05.696Z,1087
2019-04-11T06:33:05.381Z,1084
2019-04-11T06:34:06.916Z,947
2019-04-11T06:35:06.088Z,837
2019-04-11T06:36:05.431Z,832
2019-04-11T06:38:47.521Z,1015
2019-04-11T06:39:47.341Z,1103
2019-04-11T06:42:31.713Z,1119
2019-04-11T06:43:32.146Z,1065
2019-04-11T06:44:34.136Z,1015
2019-04-11T06:45:31.421Z,1049
2019-04-11T06:46:31.366Z,1085
2019-04-11T06:47:32.639Z,999
2019-04-11T06:48:31.755Z,1020
2019-04-11T06:49:32.339Z,1024
2019-04-11T06:50:33.509Z,1165
2019-04-11T06:51:32.335Z,1157
2019-04-11T06:52:31.243Z,1185
2019-04-11T06:53:32.586Z,1182
2019-04-11T06:54:32.772Z,1101
2019-04-11T06:55:32.931Z,1128
2019-04-11T06:56:32.489Z,1199
2019-04-11T06:57:32.501Z,1162
2019-04-11T06:58:33.089Z,1186
2019-04-11T06:59:38.579Z,1206
2019-04-11T07:00:35.054Z,1192
2019-04-11T07:01:34.162Z,1230
2019-04-11T07:02:34.080Z,1325
2019-04-11T07:03:36.251Z,1323
2019-04-11T07:04:33.648Z,1424
2019-04-11T07:05:35.012Z,1522
2019-04-11T07:06:32.895Z,1597
2019-04-11T07:07:34.211Z,1746
2019-04-11T07:08:32.602Z,1802
2019-04-11T07:09:34.935Z,1901
2019-04-11T07:10:34.102Z,1964
2019-04-11T07:11:34.111Z,1955
2019-04-11T07:12:33.024Z,2334
2019-04-11T07:13:33.963Z,2571
2019-04-11T07:14:33.230Z,2575
2019-04-11T07:15:33.885Z,2593
2019-04-11T07:16:34.247Z,2842
2019-04-11T07:17:34.443Z,3236
2019-04-11T07:18:35.789Z,3126
2019-04-11T07:19:35.238Z,3229
2019-04-11T07:20:35.620Z,3213
2019-04-11T07:21:35.403Z,3324
2019-04-11T07:22:34.758Z,3427
2019-04-11T07:23:36.400Z,3221
2019-04-11T07:24:35.419Z,3166
2019-04-11T07:25:35.178Z,2823
2019-04-11T07:26:35.216Z,2744
2019-04-11T07:27:36.555Z,2864
2019-04-11T07:28:36.088Z,2626
2019-04-11T07:29:35.734Z,2517
2019-04-11T07:30:35.357Z,2957
2019-04-11T07:31:35.487Z,3666
2019-04-11T07:32:36.454Z,3084
2019-04-11T07:33:37.622Z,3583
2019-04-11T07:34:36.141Z,3427
2019-04-11T07:35:35.668Z,4098
2019-04-11T07:36:36.123Z,4750
2019-04-11T07:37:36.661Z,4622
2019-04-11T07:38:36.479Z,4263
2019-04-11T07:39:37.876Z,3646
2019-04-11T07:40:35.717Z,4664
2019-04-11T07:41:41.629Z,5614
2019-04-11T07:42:38.954Z,17775
2019-04-11T07:43:35.955Z,12310
2019-04-11T07:44:36.645Z,23816
2019-04-11T07:45:38.512Z,27464
2019-04-11T07:46:36.000Z,22944
2019-04-11T07:47:37.144Z,34456
2019-04-11T07:48:35.929Z,26192
2019-04-11T07:49:37.281Z,10799
2019-04-11T07:50:36.032Z,11908
2019-04-11T07:51:36.388Z,25912
2019-04-11T07:52:36.271Z,17920
2019-04-11T07:53:35.826Z,8848
2019-04-11T07:54:37.012Z,37680
2019-04-11T07:55:36.427Z,34712
2019-04-11T07:56:35.655Z,34192
2019-04-11T07:57:36.158Z,24736
2019-04-11T07:58:35.557Z,32752
2019-04-11T07:59:37.527Z,33920
2019-04-11T08:00:43.402Z,37704
2019-04-11T08:01:36.649Z,11759
2019-04-11T08:02:36.009Z,23760
2019-04-11T08:03:35.899Z,30040
2019-04-11T08:04:36.478Z,20744
2019-04-11T08:05:36.642Z,28480
2019-04-11T08:06:39.082Z,21312
2019-04-11T08:07:38.066Z,16263
2019-04-11T08:08:36.764Z,13245
2019-04-11T08:09:36.290Z,22152
2019-04-11T08:10:37.242Z,27408
2019-04-11T08:11:36.170Z,22328
2019-04-11T08:12:37.305Z,9249
2019-04-11T08:13:36.791Z,3584
2019-04-11T08:14:36.940Z,3032
2019-04-11T08:15:36.210Z,2877
2019-04-11T08:16:37.070Z,2211
2019-04-11T08:17:41.702Z,2076
2019-04-11T08:18:36.920Z,2405
2019-04-11T08:19:36.238Z,2259
2019-04-11T08:20:37.378Z,2124
2019-04-11T08:21:37.341Z,2106
2019-04-11T08:22:37.390Z,1972
2019-04-11T08:23:36.723Z,1801
2019-04-11T08:24:38.029Z,1805
2019-04-11T08:25:37.512Z,1823
2019-04-11T08:26:37.792Z,1812
2019-04-11T08:27:51.629Z,1836
2019-04-11T08:28:37.659Z,1857
2019-04-11T08:29:38.189Z,1849
2019-04-11T08:30:37.435Z,1849
2019-04-11T08:31:38.232Z,1848
2019-04-11T08:32:38.390Z,1852
2019-04-11T08:33:38.392Z,1849
2019-04-11T08:34:37.558Z,1850
2019-04-11T08:35:37.367Z,1854
2019-04-11T08:36:37.983Z,1854
2019-04-11T08:37:37.874Z,1854
2019-04-11T08:38:37.610Z,1847
2019-04-11T08:39:37.465Z,1844
2019-04-11T08:40:37.731Z,1840
2019-04-11T08:41:39.654Z,1893
2019-04-11T08:42:37.626Z,1917
2019-04-11T08:43:37.634Z,1910
2019-04-11T08:44:37.897Z,1933
2019-04-11T08:45:38.171Z,1936
2019-04-11T08:46:39.219Z,1931
2019-04-11T08:47:43.728Z,1925
2019-04-11T08:48:39.287Z,1931
2019-04-11T08:49:37.996Z,1890
2019-04-11T08:50:38.711Z,1936
2019-04-11T08:51:47.768Z,1952
2019-04-11T08:52:38.221Z,1952
2019-04-11T08:53:38.676Z,1951
2019-04-11T08:54:41.733Z,1949
2019-04-11T08:55:48.073Z,1933
2019-04-11T08:56:40.653Z,1939
2019-04-11T08:57:40.901Z,1934
2019-04-11T08:58:40.577Z,1936
2019-04-11T08:59:55.336Z,1900
2019-04-11T09:00:42.271Z,1916
2019-04-11T09:01:40.174Z,1931
2019-04-11T09:02:40.888Z,1912
2019-04-11T09:03:39.934Z,1880
2019-04-11T09:04:39.953Z,1842
2019-04-11T09:05:38.750Z,1838
2019-04-11T09:06:38.947Z,1831
2019-04-11T09:07:38.579Z,1831
2019-04-11T09:08:38.517Z,1826
2019-04-11T09:09:39.786Z,1826
2019-04-11T09:10:40.337Z,1829
2019-04-11T09:11:40.602Z,1826
2019-04-11T09:12:39.743Z,1829
2019-04-11T09:13:40.155Z,1829
2019-04-11T09:14:38.425Z,1833
2019-04-11T09:15:39.227Z,1821
2019-04-11T09:16:39.620Z,1812
2019-04-11T09:17:38.898Z,1830
2019-04-11T09:18:41.807Z,1839
2019-04-11T09:19:38.988Z,1896
2019-04-11T09:20:40.135Z,1835
2019-04-11T09:21:40.361Z,1830
2019-04-11T09:22:39.720Z,1828
2019-04-11T09:23:40.508Z,1827
2019-04-11T09:24:41.011Z,1827
2019-04-11T09:25:40.719Z,1814
2019-04-11T09:26:41.390Z,1827
2019-04-11T09:27:40.472Z,1826
2019-04-11T09:28:45.808Z,1838
2019-04-11T09:29:41.988Z,1827
2019-04-11T09:30:43.155Z,1833
2019-04-11T09:31:39.878Z,1830
2019-04-11T09:32:40.557Z,1821
2019-04-11T09:33:41.392Z,1815
2019-04-11T09:34:39.748Z,1827
2019-04-11T09:35:41.501Z,1838
2019-04-11T09:36:41.843Z,1833
2019-04-11T09:37:42.870Z,1832
2019-04-11T09:38:40.911Z,1807
2019-04-11T09:39:41.460Z,1869
2019-04-11T09:40:42.395Z,1856
2019-04-11T09:41:47.491Z,1824
2019-04-11T09:42:43.147Z,1097
2019-04-11T09:43:54.957Z,1118
2019-04-11T09:44:55.296Z,1151
2019-04-11T09:45:41.687Z,1066
2019-04-11T09:46:41.430Z,1275
2019-04-11T09:47:43.974Z,1318
2019-04-11T09:48:42.218Z,1960
2019-04-11T09:49:40.274Z,2015
2019-04-11T09:50:40.617Z,1866
2019-04-11T09:51:45.327Z,1116
2019-04-11T09:52:47.431Z,935
2019-04-11T09:53:43.209Z,972
2019-04-11T09:54:42.780Z,1231
2019-04-11T09:55:43.814Z,999
2019-04-11T09:56:43.001Z,1019
2019-04-11T09:57:44.183Z,1026
2019-04-11T09:58:42.107Z,1110
2019-04-11T09:59:42.743Z,1270
2019-04-11T10:00:41.265Z,1393
2019-04-11T10:01:41.264Z,1668
2019-04-11T10:02:46.177Z,1162
2019-04-11T10:03:40.888Z,1220
2019-04-11T10:04:41.662Z,1253
2019-04-11T10:05:46.711Z,1184
2019-04-11T10:06:44.640Z,1084
2019-04-11T10:07:41.879Z,913
2019-04-11T10:08:41.589Z,907
2019-04-11T10:09:40.969Z,1012
2019-04-11T10:10:43.326Z,1044
2019-04-11T10:11:42.023Z,1154
2019-04-11T10:12:42.410Z,1170
2019-04-11T10:13:43.038Z,1254
2019-04-11T10:14:41.834Z,1161
2019-04-11T10:15:41.227Z,1150
2019-04-11T10:16:42.259Z,1146
2019-04-11T10:17:42.577Z,1331
2019-04-11T10:18:42.702Z,1007
2019-04-11T10:19:42.276Z,866
2019-04-11T10:20:42.845Z,834
2019-04-11T10:21:43.586Z,834
2019-04-11T10:22:42.025Z,927
2019-04-11T10:23:43.029Z,1016
2019-04-11T10:24:43.001Z,1088
2019-04-11T10:25:45.465Z,1310
2019-04-11T10:26:44.491Z,1253
2019-04-11T10:27:41.611Z,1634
2019-04-11T10:28:43.997Z,1428
2019-04-11T10:29:44.174Z,1398
2019-04-11T10:30:46.021Z,1290
2019-04-11T10:31:42.339Z,1316
2019-04-11T10:32:43.978Z,1301
2019-04-11T10:33:46.807Z,1193
2019-04-11T10:34:41.823Z,1017
2019-04-11T10:35:42.772Z,1002
2019-04-11T10:36:43.197Z,1018
2019-04-11T10:37:44.425Z,976
2019-04-11T10:38:44.816Z,1058
2019-04-11T10:39:42.120Z,1086
2019-04-11T10:40:44.753Z,1101
2019-04-11T10:41:43.894Z,1287
2019-04-11T10:42:42.545Z,1347
2019-04-11T10:43:47.449Z,1202
2019-04-11T10:44:42.336Z,1186
2019-04-11T10:45:42.942Z,1331
2019-04-11T10:46:44.315Z,1233
2019-04-11T10:47:47.041Z,1419
2019-04-11T10:51:47.708Z,1293
2019-04-11T10:52:22.491Z,1261
2019-04-11T10:53:41.279Z,1205
2019-04-11T10:54:23.992Z,1191
2019-04-11T10:55:17.674Z,1198
2019-04-11T10:57:05.823Z,1211
2019-04-11T10:57:29.946Z,1294
2019-04-11T10:58:24.708Z,1190
2019-04-11T10:59:25.188Z,1127
2019-04-11T11:00:22.968Z,1070
2019-04-11T11:01:26.414Z,867
2019-04-11T11:02:26.114Z,817
2019-04-11T11:03:22.616Z,828
2019-04-11T11:04:23.416Z,855
2019-04-11T11:05:22.550Z,862
2019-04-11T11:06:22.417Z,923
2019-04-11T11:07:26.716Z,930
2019-04-11T11:08:26.542Z,952
2019-04-11T11:09:24.001Z,997
2019-04-11T11:10:23.669Z,948
2019-04-11T11:11:21.935Z,1039
2019-04-11T11:12:23.162Z,937
2019-04-11T11:13:22.271Z,978
2019-04-11T11:14:24.880Z,869
2019-04-11T11:15:27.354Z,992
2019-04-11T11:16:30.834Z,1030
2019-04-11T11:17:45.770Z,1146
2019-04-11T11:18:42.095Z,1079
2019-04-11T11:19:40.151Z,1061
2019-04-11T11:20:28.761Z,1041
2019-04-11T11:21:29.489Z,1031
2019-04-11T11:22:48.747Z,988
2019-04-11T11:23:26.851Z,925
2019-04-11T11:26:39.154Z,940
2019-04-11T11:27:04.480Z,968
2019-04-11T11:27:57.886Z,1026
2019-04-11T11:29:00.325Z,1022
2019-04-11T11:29:58.268Z,1023
2019-04-11T11:30:58.437Z,1030
2019-04-11T11:31:58.030Z,974
2019-04-11T11:33:00.191Z,1014
2019-04-11T11:33:57.052Z,1002
2019-04-11T11:34:58.993Z,977
2019-04-11T11:36:01.022Z,967
2019-04-11T11:37:00.684Z,977
2019-04-11T11:37:57.617Z,1087
2019-04-11T11:39:49.167Z,1010
2019-04-11T11:40:21.795Z,1035
2019-04-11T11:41:20.565Z,996
2019-04-11T11:42:06.168Z,1019
2019-04-11T11:43:06.406Z,1041
2019-04-11T11:44:27.245Z,1006
2019-04-11T11:45:13.135Z,958
2019-04-11T11:46:05.079Z,957
2019-04-11T11:47:24.077Z,966
2019-04-11T11:48:27.982Z,987
2019-04-11T11:49:40.432Z,997
2019-04-11T11:50:28.737Z,1010
2019-04-11T11:51:29.556Z,977
2019-04-11T11:52:24.777Z,920
2019-04-11T11:53:28.377Z,908
2019-04-11T11:54:29.287Z,879
2019-04-11T11:55:25.671Z,660
2019-04-11T11:56:31.773Z,638
2019-04-11T11:57:23.663Z,712
2019-04-11T11:58:24.350Z,788
2019-04-11T11:59:27.094Z,811
2019-04-11T12:00:23.408Z,794
2019-04-11T12:01:27.419Z,815
2019-04-11T12:02:28.465Z,881
2019-04-11T12:03:44.595Z,1005
2019-04-11T12:04:26.162Z,1099
2019-04-11T12:05:27.112Z,1036
2019-04-11T12:07:33.577Z,983
2019-04-11T12:08:25.805Z,974
2019-04-11T12:09:24.582Z,941
2019-04-11T12:10:28.009Z,966
2019-04-11T12:11:24.086Z,853
2019-04-11T12:12:23.915Z,862
2019-04-11T12:13:23.283Z,865
2019-04-11T12:14:30.550Z,891
2019-04-11T12:15:26.587Z,921
2019-04-11T12:16:23.789Z,874
2019-04-11T12:17:23.214Z,850
2019-04-11T12:18:24.808Z,868
2019-04-11T12:19:26.915Z,794
2019-04-11T12:20:31.223Z,761
2019-04-11T12:23:06.618Z,723
2019-04-11T12:23:43.177Z,804
2019-04-11T12:24:32.328Z,864
2019-04-11T12:25:27.227Z,853
2019-04-11T12:26:30.197Z,895
2019-04-11T12:27:28.864Z,877
2019-04-11T12:28:33.131Z,825
2019-04-11T12:29:30.422Z,822
2019-04-11T12:30:32.105Z,790
2019-04-11T12:31:28.677Z,764
2019-04-11T12:32:28.428Z,776
2019-04-11T12:33:27.660Z,758
2019-04-11T12:34:27.147Z,750
2019-04-11T12:35:28.811Z,756
2019-04-11T12:36:30.626Z,635
2019-04-11T12:37:31.665Z,628
2019-04-11T12:38:29.016Z,629
2019-04-11T12:39:28.831Z,676
2019-04-11T12:40:27.684Z,682
2019-04-11T12:41:28.233Z,707
2019-04-11T12:42:29.470Z,716
2019-04-11T12:43:27.461Z,728
2019-04-11T12:44:34.776Z,784
2019-04-11T12:45:28.723Z,721
2019-04-11T12:46:29.941Z,745
2019-04-11T12:47:28.949Z,733
2019-04-11T12:48:29.983Z,615
2019-04-11T12:49:28.690Z,637
2019-04-11T12:50:28.448Z,663
2019-04-11T12:51:28.378Z,717
2019-04-11T12:52:28.756Z,657
2019-04-11T12:53:28.173Z,739
2019-04-11T12:54:30.102Z,639
2019-04-11T12:55:29.639Z,580
2019-04-11T12:56:40.541Z,608
2019-04-11T12:57:28.634Z,619
2019-04-11T12:58:28.829Z,623
2019-04-11T12:59:28.275Z,617
2019-04-11T13:00:28.824Z,664
2019-04-11T13:01:29.689Z,722
2019-04-11T13:02:28.523Z,755
2019-04-11T13:03:28.770Z,754
2019-04-11T13:04:29.285Z,809
2019-04-11T13:05:28.666Z,841
2019-04-11T13:06:50.544Z,772
2019-04-11T13:07:33.612Z,818
2019-04-11T13:08:29.597Z,711
2019-04-11T13:09:32.579Z,719
2019-04-11T13:10:29.963Z,750
2019-04-11T13:11:28.838Z,665
2019-04-11T13:12:30.408Z,645
2019-04-11T13:13:46.962Z,668
2019-04-11T13:14:31.451Z,647
2019-04-11T13:15:33.464Z,677
2019-04-11T13:16:31.100Z,671
2019-04-11T13:17:29.715Z,579
2019-04-11T13:18:30.742Z,555
2019-04-11T13:19:30.497Z,639
2019-04-11T13:20:31.063Z,660
2019-04-11T13:21:33.211Z,661
2019-04-11T13:22:34.900Z,702
2019-04-11T13:23:31.083Z,741
2019-04-11T13:24:33.104Z,681
2019-04-11T13:25:30.255Z,677
2019-04-11T13:26:30.587Z,656
2019-04-11T13:27:29.706Z,643
2019-04-11T13:28:31.387Z,635
2019-04-11T13:29:30.724Z,648
2019-04-11T13:30:29.870Z,660
2019-04-11T13:31:30.553Z,594
2019-04-11T13:32:30.192Z,583
2019-04-11T13:33:30.917Z,679
2019-04-11T13:34:30.276Z,669
2019-04-11T13:35:31.589Z,562
2019-04-11T13:36:30.560Z,602
2019-04-11T13:37:31.050Z,683
2019-04-11T13:38:30.545Z,711
2019-04-11T13:39:31.319Z,728
2019-04-11T13:40:32.452Z,649
2019-04-11T13:41:31.318Z,634
2019-04-11T13:42:30.923Z,587
2019-04-11T13:43:37.203Z,532
2019-04-11T13:44:31.261Z,642
2019-04-11T13:45:31.181Z,687
2019-04-11T13:46:32.953Z,705
2019-04-11T13:47:31.008Z,653
2019-04-11T13:48:31.935Z,638
2019-04-11T13:49:31.944Z,640
2019-04-11T13:50:32.867Z,643
2019-04-11T13:51:31.387Z,598
2019-04-11T13:52:32.417Z,595
2019-04-11T13:53:32.245Z,659
2019-04-11T13:54:32.393Z,646
2019-04-11T13:55:31.819Z,660
2019-04-11T13:56:32.126Z,601
2019-04-11T13:57:32.263Z,594
2019-04-11T13:58:32.183Z,565
2019-04-11T13:59:31.897Z,586
2019-04-11T14:00:32.397Z,495
2019-04-11T14:01:33.149Z,537
2019-04-11T14:02:34.300Z,501
2019-04-11T14:03:33.734Z,406
2019-04-11T14:04:32.826Z,420
2019-04-11T14:05:32.345Z,461
2019-04-11T14:06:32.313Z,471
2019-04-11T14:07:32.441Z,557
2019-04-11T14:08:32.899Z,497